AirNav   Pilot Hours Calculator
 
 1098 users online  

09NC William Irving Lewis Airport
Broadway, North Carolina, USA

GOING TO BROADWAY?


FAA INFORMATION EFFECTIVE 01 DECEMBER 2022

Location

FAA Identifier: 09NC
Lat/Long: 35-19-45.5700N 079-01-48.0900W
35-19.759500N 079-01.801500W
35.3293250,-79.0300250
(estimated)
Elevation: 310 ft. / 94 m (estimated)
Variation: 07W (1990)
From city: 10 miles N of BROADWAY, NC
Time zone: UTC -5 (UTC -4 during Daylight Saving Time)
Zip code: 27505

Airport Operations

Airport use: Private use. Permission required prior to landing
Activation date: 06/1993
Control tower: no
ARTCC: WASHINGTON CENTER
FSS: RALEIGH FLIGHT SERVICE STATION
Attendance: CONTINUOUS
Wind indicator: yes
Segmented circle: no

Airport Communications

WX AWOS-3 at HRJ (15 nm E): 119.025 (910-814-3946)
WX AWOS-3 at TTA (16 nm N): 120.625 (919-708-5382)
WX AWOS-3PT at SOP (18 nm W): 127.575 (910-692-4287)

Nearby radio navigation aids

VOR radial/distance  VOR name  Freq  Var
FAYr344/22.0FAYETTEVILLE VOR/DME114.8504W
SDZr079/28.2SANDHILLS VORTAC111.8003W
RDUr209/34.7RALEIGH/DURHAM VORTAC117.2009W

 
NDB name  Hdg/Dist  Freq  Var  ID
HARNETT258/18.541708WHQT .... --.- -
CLINTON312/39.141209WCTZ -.-. - --..

Airport Services

Runway Information

Runway 16/34

Dimensions: 2400 x 80 ft. / 732 x 24 m
Surface: turf
RUNWAY 16  RUNWAY 34
Traffic pattern: rightleft

Airport Ownership and Management from official FAA records

Ownership: Privately-owned
Owner: JOHN IRVIN LEWIS
ROUTE 4 BOX 324
SPRING LAKE, NC 28390
Phone 919-497-2531
Manager: JOHN IRVIN LEWIS
ROUTE 4 BOX 324
SPRING LAKE, NC 28390
Phone 919-497-2531

Airport Operational Statistics

Aircraft based on the field: 3
Single engine airplanes: 1
Helicopters: 1
Ultralights: 1
    

Additional Remarks

FOR CD CTC WASHINGTON ARTCC AT 703-771-3587.

Instrument Procedures

There are no published instrument procedures at 09NC.

Some nearby airports with instrument procedures:

KPOB - Pope Army Airfield (10 nm S)
KFBG - Simmons Army Airfield (13 nm S)
KHRJ - Harnett Regional Jetport Airport (15 nm E)
KTTA - Raleigh Executive Jetport at Sanford-Lee County Airport (16 nm N)
KSOP - Moore County Airport (18 nm W)
 
Loc | Ops | Rwys | IFR | FBO | Links
Com | Nav | Svcs | Stats | Notes
Area around 09NC (William Irving Lewis Airport)
 
Road maps at: MapQuest Bing Google
 
Aerial photo
No photo
 
Sectional chart

 
Airport distance calculator
Flying to William Irving Lewis Airport? Find the distance to fly.

From to 09NC

Sunrise and sunset
Times for 06-Dec-2022
 Local
(UTC-5)
 Zulu
(UTC)
Morning civil twilight06:4411:44
Sunrise07:1212:12
Sunset17:0222:02
Evening civil twilight17:3022:30

Current date and time
Zulu (UTC)  07-Dec-2022 03:04:11
Local (UTC-5)  06-Dec-2022 22:04:11
 
METAR
KPOB 
10nm S 
070255Z AUTO 00000KT 10SM OVC022 15/14 A3023 RMK AO2 SLP240 T01490144 50001 $
KFBG 
14nm SE 
070255Z AUTO 00000KT 10SM OVC026 15/15 A3023 RMK AO2 SLP240 T01520150 51004 $
KHRJ 
15nm E 
070255Z AUTO 00000KT 10SM OVC028 14/13 A3026 RMK AO2 T01410134
KTTA 
16nm N 
070255Z AUTO 00000KT 1 1/2SM BR OVC016 13/13 A3024 RMK AO2 T01250125
TAF
KPOB 
10nm S 
061800Z 0618/0724 12003KT 9999 SCT006 BKN017 OVC025 QNH3019INS TEMPO 0618/0623 4800 -DZ BR BKN006 BKN015 OVC020 BECMG 0704/0705 23003KT 8000 BR BKN006 OVC012 QNH3024INS BECMG 0709/0710 24002KT 1600 BR OVC004 QNH3025INS BECMG 0714/0715 24004KT 8000 BR BKN007 OVC015 QNH3027INS BECMG 0716/0717 23005KT 9999 NSW OVC007 QNH3021INS TX15/0621Z TN12/0711Z LAST NO AMDS AFT 0623 NEXT 0718
KFBG 
14nm SE 
070200Z 0702/0808 24004KT 9999 -DZ BR OVC025 QNH3023INS BECMG 0703/0704 18004KT 8000 BR -DZ OVC008 QNH3028INS BECMG 0715/0716 18004KT 9999 BKN010 QNH3030INS BECMG 0720/0721 23004KT 9999 OVC008 QNH3025INS BECMG 0722/0723 24004KT 6000 BR OVC002 QNH3023INS TX17/0720Z TN12/0709Z
NOTAMs
Click for the latest NOTAMs
NOTAMs are issued by the DoD/FAA and will open in a separate window not controlled by AirNav.

 

 
 

Would you like to see your business listed on this page?

 If your business provides an interesting product or service to pilots, flight crews, aircraft, or users of the William Irving Lewis Airport, you should consider listing it here.  To start the listing process, click on the button below
 
Add a business
 

Other Pages about William Irving Lewis Airport

Update a link
 
Copyright © AirNav, LLC. All rights reserved. Privacy Policy  Contact